Aérodrome :
LOGIN :

S'inscrire | Disclaimer

   EN    FR    IT 

 










Légende :    VFR   VFR Marginal   IFR   IFR Intensif   IFR Très Intensif
Visi : 
Plafond : 
>= 8 km
>= 3000ft
5 à 8 km
1000 à 3000 ft
1500m à 5 km
500 à 1000 ft
800 à 1500m
200 à 500 ft
< 800m
< 200 ft
Symboles :   Orages  Brouillard  Fortes neiges  Fortes précipitations  Vent > 20 kt
SIGMETs :   Divers  Orages  Givrage  Turbulence  Onde Orograph.  Cendres Volcan.






- Altitude de l'aérodrome : 1496 ft
- Code IATA : SBZ


LRSB - Sibiu

DERNIER METAR :
  • 290630Z 08003KT CAVOK 06/M00 Q1010 NOSIG

METARs EXPIRÉS :
  • 290600Z 07003KT CAVOK 04/M01 Q1010 NOSIG
  • 290530Z 11003KT CAVOK 02/M01 Q1010 NOSIG
  • 290500Z 04003KT CAVOK 02/M02 Q1010 NOSIG
  • 290430Z VRB01KT CAVOK 00/M02 Q1010
  • 290400Z 15001KT CAVOK M01/M03 Q1010

TAF TAF LRSB
Valide du 29 à 06h jusqu'au 30 à 06h UTC


290500Z 2906/3006 VRB04KT CAVOK
TEMPO 2914/2920 5000 SHRA BKN015 SCT025CB OVC030
TEMPO 3001/3005 3000 BR



MET'MAP, la Météo Aéronautique d'un coup d'oeil ! - Copyright ORBIFLY Décembre 2007 - Disclaimer

ORBIFLY MET'MAP TEAM :

Programmation & Développement : Alexandra Zaïnal
Sur une idée originale de : Baudouin d'Aumeries
Assistance à la programmation : Marc-Olivier Méhu
Soutien technique & logistique : Manuel Goepfert

Contact : metmap@orbifly.com




SOURCES & CREDITS :

   NOAA